createdAt,value
2022-08-23T00:00:35.972Z,65.12
2022-08-23T00:03:03.449Z,65.68
2022-08-23T00:05:31.776Z,66.09
2022-08-23T00:07:58.421Z,66.39
2022-08-23T00:10:25.074Z,66.76
2022-08-23T00:12:51.545Z,66.80
2022-08-23T00:15:20.410Z,67.11
2022-08-23T00:17:47.280Z,67.53
2022-08-23T00:20:16.193Z,67.70
2022-08-23T00:22:42.910Z,67.76
2022-08-23T00:25:11.681Z,67.77
2022-08-23T00:27:38.754Z,67.79
2022-08-23T00:30:07.679Z,68.17
2022-08-23T00:32:36.900Z,68.35
2022-08-23T00:35:04.830Z,68.82
2022-08-23T00:37:32.686Z,69.36
2022-08-23T00:40:00.517Z,69.57
2022-08-23T00:43:01.371Z,69.88
2022-08-23T00:46:00.303Z,70.08
2022-08-23T00:48:27.098Z,70.06
2022-08-23T00:51:09.279Z,69.98
2022-08-23T00:53:38.995Z,70.35
2022-08-23T00:56:09.617Z,70.35
2022-08-23T00:58:36.544Z,69.95
2022-08-23T01:01:05.631Z,70.06
2022-08-23T01:03:38.758Z,69.39
2022-08-23T01:06:40.224Z,68.66
2022-08-23T01:09:11.807Z,69.15
2022-08-23T01:11:42.697Z,68.83
2022-08-23T01:14:17.222Z,69.13
2022-08-23T01:16:50.482Z,68.53
2022-08-23T01:19:39.398Z,68.67
2022-08-23T01:22:36.992Z,69.38
2022-08-23T01:25:09.136Z,69.11
2022-08-23T01:27:37.924Z,69.06
2022-08-23T01:30:09.442Z,68.86
2022-08-23T01:32:42.846Z,68.65
2022-08-23T01:35:10.113Z,69.54
2022-08-23T01:37:36.683Z,69.99
2022-08-23T01:40:04.408Z,70.12
2022-08-23T01:42:31.067Z,70.53
2022-08-23T01:44:58.467Z,71.07
2022-08-23T01:47:25.161Z,70.43
2022-08-23T01:49:51.789Z,70.09
2022-08-23T01:52:19.486Z,70.35
2022-08-23T01:54:46.500Z,70.21
2022-08-23T01:57:13.155Z,70.33
2022-08-23T01:59:39.599Z,70.21
2022-08-23T02:02:06.110Z,70.07
2022-08-23T02:04:32.584Z,70.13
2022-08-23T02:06:59.030Z,69.80
2022-08-23T02:09:25.843Z,69.54
2022-08-23T02:11:52.469Z,69.44
2022-08-23T02:14:21.043Z,69.66
2022-08-23T02:17:03.644Z,69.18
2022-08-23T02:19:32.891Z,69.94
2022-08-23T02:21:59.442Z,70.25
2022-08-23T02:24:26.420Z,70.26
2022-08-23T02:26:57.141Z,70.30
2022-08-23T02:29:25.862Z,70.50
2022-08-23T02:31:52.697Z,70.89
2022-08-23T02:37:05.025Z,70.56
2022-08-23T02:39:32.074Z,70.66
2022-08-23T02:41:58.798Z,70.75
2022-08-23T02:44:25.559Z,70.92
2022-08-23T02:46:52.308Z,70.79
2022-08-23T02:49:19.433Z,70.91
2022-08-23T02:51:46.404Z,70.76
2022-08-23T02:54:13.442Z,71.00
2022-08-23T02:56:40.331Z,71.02
2022-08-23T02:59:07.326Z,70.74
2022-08-23T03:01:37.710Z,70.31
2022-08-23T03:04:06.838Z,70.52
2022-08-23T03:06:34.267Z,70.80
2022-08-23T03:09:01.467Z,70.89
2022-08-23T03:11:28.435Z,71.08
2022-08-23T03:13:56.487Z,71.18
2022-08-23T03:16:24.124Z,71.08
2022-08-23T03:18:51.089Z,71.20
2022-08-23T03:21:18.718Z,70.42
2022-08-23T03:23:45.631Z,70.59
2022-08-23T03:26:14.053Z,70.64
2022-08-23T03:28:42.931Z,70.53
2022-08-23T03:31:10.343Z,70.46
2022-08-23T03:33:38.208Z,70.67
2022-08-23T03:36:06.725Z,70.71
2022-08-23T03:38:34.265Z,70.92
2022-08-23T03:41:01.291Z,70.53
2022-08-23T03:43:28.371Z,70.22
2022-08-23T03:45:54.906Z,70.40
2022-08-23T03:48:21.778Z,70.65
2022-08-23T03:50:48.323Z,70.96
2022-08-23T03:53:14.892Z,70.36
2022-08-23T03:55:42.974Z,70.97
2022-08-23T03:58:10.576Z,70.70
2022-08-23T04:00:37.797Z,69.89
2022-08-23T04:03:05.741Z,70.37
2022-08-23T04:05:32.332Z,70.26
2022-08-23T04:07:58.988Z,70.71
2022-08-23T04:10:25.791Z,70.75
2022-08-23T04:12:54.761Z,70.57
2022-08-23T04:15:22.090Z,70.55
2022-08-23T04:17:48.704Z,70.70
2022-08-23T04:20:15.419Z,71.12
2022-08-23T04:22:41.899Z,71.05
2022-08-23T04:25:26.108Z,70.76
2022-08-23T04:27:55.278Z,70.68
2022-08-23T04:30:22.431Z,70.55
2022-08-23T04:32:50.423Z,71.18
2022-08-23T04:35:17.139Z,70.97
2022-08-23T04:37:43.623Z,71.17
2022-08-23T04:40:29.630Z,70.69
2022-08-23T04:42:57.153Z,71.17
2022-08-23T04:45:24.307Z,71.23
2022-08-23T04:47:50.875Z,70.42
2022-08-23T04:50:17.464Z,70.67
2022-08-23T04:52:44.074Z,70.80
2022-08-23T04:55:10.684Z,70.79
2022-08-23T04:57:37.134Z,71.07
2022-08-23T05:00:05.198Z,70.96
2022-08-23T05:02:31.662Z,70.83
2022-08-23T05:04:58.063Z,70.55
2022-08-23T05:07:41.832Z,70.55
2022-08-23T05:10:12.619Z,70.52
2022-08-23T05:12:39.451Z,70.58
2022-08-23T05:15:06.731Z,70.00
2022-08-23T05:17:33.138Z,70.33
2022-08-23T05:19:59.715Z,69.54
2022-08-23T05:22:26.374Z,69.38
2022-08-23T05:24:52.850Z,69.35
2022-08-23T05:27:19.274Z,69.30
2022-08-23T05:29:45.928Z,69.41
2022-08-23T05:32:12.472Z,69.33
2022-08-23T05:34:39.062Z,69.83
2022-08-23T05:37:05.536Z,69.96
2022-08-23T05:39:36.131Z,69.95
2022-08-23T05:42:03.603Z,69.93
2022-08-23T05:44:30.381Z,69.69
2022-08-23T05:47:02.949Z,69.21
2022-08-23T05:49:29.509Z,69.29
2022-08-23T05:51:56.755Z,68.97
2022-08-23T05:54:23.350Z,68.23
2022-08-23T05:56:49.771Z,67.94
2022-08-23T05:59:17.075Z,67.86
2022-08-23T06:01:44.399Z,67.00
2022-08-23T06:04:12.516Z,67.15
2022-08-23T06:06:41.682Z,66.75
2022-08-23T06:09:11.270Z,67.03
2022-08-23T06:11:38.094Z,66.88
2022-08-23T06:14:07.679Z,66.03
2022-08-23T06:16:43.542Z,66.39
2022-08-23T06:19:11.303Z,65.66
2022-08-23T06:21:38.953Z,65.78
2022-08-23T06:24:07.055Z,65.16
2022-08-23T06:26:39.817Z,64.91
2022-08-23T06:32:36.158Z,63.43
2022-08-23T06:35:33.141Z,62.35
2022-08-23T06:37:49.402Z,62.01
2022-08-23T06:40:16.010Z,62.54
2022-08-23T06:42:44.631Z,62.06
2022-08-23T06:45:11.386Z,61.40
2022-08-23T06:47:37.826Z,60.54
2022-08-23T06:50:04.695Z,60.00
2022-08-23T06:52:31.111Z,59.87
2022-08-23T06:54:58.569Z,58.20
2022-08-23T06:57:25.227Z,58.12
2022-08-23T06:59:51.667Z,57.58
2022-08-23T07:02:18.298Z,56.86
2022-08-23T07:04:44.901Z,55.87
2022-08-23T07:07:12.434Z,55.81
2022-08-23T07:09:40.314Z,55.77
2022-08-23T07:12:07.128Z,55.48
2022-08-23T07:14:33.981Z,54.76
2022-08-23T07:17:03.296Z,54.45
2022-08-23T07:19:33.643Z,53.39
2022-08-23T07:22:00.799Z,52.65
2022-08-23T07:24:32.339Z,52.68
2022-08-23T07:27:01.368Z,52.34
2022-08-23T07:29:28.635Z,51.67
2022-08-23T07:31:56.963Z,52.07
2022-08-23T07:34:24.864Z,51.51
2022-08-23T07:36:52.501Z,51.45
2022-08-23T07:39:20.558Z,50.68
2022-08-23T07:41:47.075Z,49.63
2022-08-23T07:44:16.810Z,48.82
2022-08-23T07:46:46.006Z,48.77
2022-08-23T07:49:12.934Z,47.58
2022-08-23T07:51:41.927Z,46.85
2022-08-23T07:54:10.472Z,46.41
2022-08-23T07:56:37.457Z,44.49
2022-08-23T07:59:05.510Z,45.36
2022-08-23T08:01:32.192Z,46.08
2022-08-23T08:04:01.414Z,45.63
2022-08-23T08:06:35.542Z,44.96
2022-08-23T08:09:03.332Z,46.06
2022-08-23T08:11:35.218Z,44.53
2022-08-23T08:14:05.997Z,43.24
2022-08-23T08:16:38.468Z,42.77
2022-08-23T08:19:08.060Z,40.74
2022-08-23T08:21:35.974Z,42.09
2022-08-23T08:24:06.693Z,40.95
2022-08-23T08:26:34.106Z,38.81
2022-08-23T08:29:00.706Z,42.71
2022-08-23T08:31:27.574Z,43.10
2022-08-23T08:33:54.281Z,43.85
2022-08-23T08:36:31.807Z,43.50
2022-08-23T08:39:00.758Z,41.36
2022-08-23T08:42:05.295Z,40.54
2022-08-23T08:44:50.088Z,38.25
2022-08-23T08:47:30.242Z,37.19
2022-08-23T08:50:05.704Z,38.67
2022-08-23T08:52:43.133Z,39.94
2022-08-23T08:55:26.238Z,38.13
2022-08-23T08:57:55.050Z,37.26
2022-08-23T09:00:23.431Z,36.55
2022-08-23T09:02:51.084Z,34.08
2022-08-23T09:05:27.671Z,35.95
2022-08-23T09:08:10.780Z,38.20
2022-08-23T09:10:51.626Z,35.41
2022-08-23T09:13:36.570Z,36.70
2022-08-23T09:16:12.246Z,39.07
2022-08-23T09:18:39.142Z,38.88
2022-08-23T09:21:08.359Z,36.42
2022-08-23T09:23:44.126Z,35.70
2022-08-23T09:26:25.542Z,33.36
2022-08-23T09:28:55.802Z,32.67
2022-08-23T09:31:44.573Z,32.29
2022-08-23T09:34:37.041Z,37.18
2022-08-23T09:37:25.058Z,36.60
2022-08-23T09:40:12.776Z,35.91
2022-08-23T09:42:41.410Z,32.46
2022-08-23T09:45:29.739Z,36.92
2022-08-23T09:47:58.440Z,35.72
2022-08-23T09:50:26.770Z,33.76
2022-08-23T09:53:14.453Z,33.52
2022-08-23T09:56:04.059Z,33.58
2022-08-23T09:58:38.302Z,31.86
2022-08-23T10:01:13.594Z,31.45
2022-08-23T10:03:42.603Z,29.84
2022-08-23T10:06:15.501Z,30.72
2022-08-23T10:08:54.227Z,29.05
2022-08-23T10:11:25.843Z,33.04
2022-08-23T10:13:52.941Z,32.32
2022-08-23T10:16:36.961Z,34.23
2022-08-23T10:19:10.396Z,31.77
2022-08-23T10:21:49.522Z,29.75
2022-08-23T10:24:19.629Z,31.92
2022-08-23T10:27:38.405Z,31.00
2022-08-23T10:30:11.011Z,32.50
2022-08-23T10:33:14.334Z,29.90
2022-08-23T10:36:12.079Z,28.72
2022-08-23T10:38:52.033Z,27.88
2022-08-23T10:41:40.136Z,27.18
2022-08-23T10:44:47.932Z,26.91
2022-08-23T10:47:22.834Z,29.75
2022-08-23T10:49:52.668Z,30.09
2022-08-23T10:52:27.035Z,31.15
2022-08-23T10:55:05.599Z,29.52
2022-08-23T10:57:39.700Z,31.80
2022-08-23T11:00:16.512Z,29.52
2022-08-23T11:03:14.427Z,29.26
2022-08-23T11:05:41.089Z,30.67
2022-08-23T11:08:11.210Z,30.44
2022-08-23T11:10:37.629Z,29.66
2022-08-23T11:13:12.990Z,31.07
2022-08-23T11:15:45.466Z,29.73
2022-08-23T11:18:40.799Z,32.12
2022-08-23T11:21:10.266Z,33.07
2022-08-23T11:23:47.967Z,34.01
2022-08-23T11:26:22.287Z,32.14
2022-08-23T11:28:51.439Z,30.28
2022-08-23T11:31:27.031Z,29.20
2022-08-23T11:34:11.262Z,28.81
2022-08-23T11:36:37.854Z,28.13
2022-08-23T11:39:12.916Z,27.82
2022-08-23T11:42:05.862Z,29.35
2022-08-23T11:44:40.122Z,30.70
2022-08-23T11:47:10.253Z,30.89
2022-08-23T11:49:51.276Z,31.00
2022-08-23T11:52:33.029Z,29.05
2022-08-23T11:55:25.011Z,27.62
2022-08-23T11:58:21.150Z,27.82
2022-08-23T12:01:10.563Z,29.47
2022-08-23T12:03:57.059Z,29.38
2022-08-23T12:06:50.847Z,30.74
2022-08-23T12:09:20.469Z,30.12
2022-08-23T12:11:56.277Z,28.12
2022-08-23T12:14:31.760Z,31.19
2022-08-23T12:17:01.023Z,29.90
2022-08-23T12:19:40.344Z,29.89
2022-08-23T12:22:21.627Z,31.96
2022-08-23T12:25:03.884Z,31.93
2022-08-23T12:27:36.693Z,30.52
2022-08-23T12:30:10.783Z,30.50
2022-08-23T12:33:07.900Z,32.20
2022-08-23T12:35:40.393Z,33.18
2022-08-23T12:38:12.814Z,32.68
2022-08-23T12:40:49.082Z,31.39
2022-08-23T12:43:24.966Z,30.30
2022-08-23T12:45:55.902Z,27.60
2022-08-23T12:48:26.910Z,29.40
2022-08-23T12:50:57.226Z,29.72
2022-08-23T12:53:30.502Z,29.48
2022-08-23T12:56:08.022Z,29.14
2022-08-23T12:58:38.584Z,27.06
2022-08-23T13:01:16.889Z,25.72
2022-08-23T13:03:47.656Z,28.15
2022-08-23T13:06:18.954Z,30.81
2022-08-23T13:08:52.503Z,31.22
2022-08-23T13:11:22.256Z,30.48
2022-08-23T13:13:49.457Z,30.35
2022-08-23T13:16:36.856Z,31.86
2022-08-23T13:19:16.804Z,33.59
2022-08-23T13:21:43.908Z,35.19
2022-08-23T13:24:47.784Z,34.08
2022-08-23T13:27:17.209Z,32.66
2022-08-23T13:29:52.674Z,32.51
2022-08-23T13:32:41.943Z,32.82
2022-08-23T13:35:36.490Z,30.39
2022-08-23T13:38:21.995Z,29.88
2022-08-23T13:41:05.048Z,31.04
2022-08-23T13:43:40.653Z,31.55
2022-08-23T13:46:13.205Z,31.97
2022-08-23T13:48:50.684Z,31.13
2022-08-23T13:51:39.046Z,31.27
2022-08-23T13:54:14.560Z,31.73
2022-08-23T13:56:54.267Z,31.27
2022-08-23T13:59:31.733Z,32.02
2022-08-23T14:02:05.068Z,29.42
2022-08-23T14:04:31.756Z,30.46
2022-08-23T14:06:58.362Z,29.51
2022-08-23T14:09:24.941Z,29.89
2022-08-23T14:11:55.207Z,29.30
2022-08-23T14:14:21.839Z,28.27
2022-08-23T14:16:48.467Z,27.43
2022-08-23T14:19:18.120Z,28.91
2022-08-23T14:22:01.674Z,27.98
2022-08-23T14:24:28.410Z,26.68
2022-08-23T14:26:56.232Z,29.28
2022-08-23T14:29:24.107Z,29.91
2022-08-23T14:31:51.802Z,30.15
2022-08-23T14:34:18.605Z,28.99
2022-08-23T14:39:31.837Z,30.67
2022-08-23T14:41:58.677Z,30.00
2022-08-23T14:44:28.991Z,27.96
2022-08-23T14:46:58.289Z,29.34
2022-08-23T14:49:24.729Z,30.18
2022-08-23T14:51:51.663Z,31.42
2022-08-23T14:54:23.096Z,31.82
2022-08-23T14:56:49.876Z,32.09
2022-08-23T14:59:17.075Z,32.75
2022-08-23T15:01:43.765Z,32.61
2022-08-23T15:04:10.315Z,32.55
2022-08-23T15:06:36.968Z,31.17
2022-08-23T15:09:04.002Z,31.24
2022-08-23T15:14:17.261Z,33.29
2022-08-23T15:16:43.711Z,34.00
2022-08-23T15:19:10.262Z,33.19
2022-08-23T15:21:36.726Z,32.08
2022-08-23T15:24:03.581Z,31.83
2022-08-23T15:26:31.685Z,33.46
2022-08-23T15:28:59.296Z,32.64
2022-08-23T15:31:26.399Z,32.39
2022-08-23T15:33:52.942Z,31.67
2022-08-23T15:36:19.635Z,32.66
2022-08-23T15:38:48.101Z,33.53
2022-08-23T15:41:17.309Z,31.97
2022-08-23T15:43:44.603Z,31.57
2022-08-23T15:46:16.613Z,31.07
2022-08-23T15:48:46.576Z,30.40
2022-08-23T15:51:13.050Z,30.70
2022-08-23T15:53:40.290Z,32.27
2022-08-23T15:56:13.924Z,33.85
2022-08-23T15:58:42.022Z,34.26
2022-08-23T16:01:15.671Z,34.54
2022-08-23T16:03:45.058Z,33.80
2022-08-23T16:06:13.394Z,34.10
2022-08-23T16:08:42.911Z,33.40
2022-08-23T16:11:12.928Z,32.93
2022-08-23T16:13:43.020Z,33.77
2022-08-23T16:16:31.618Z,35.21
2022-08-23T16:18:59.856Z,35.95
2022-08-23T16:21:28.987Z,35.94
2022-08-23T16:23:56.916Z,36.60
2022-08-23T16:26:35.241Z,36.72
2022-08-23T16:29:07.400Z,36.15
2022-08-23T16:31:38.513Z,35.54
2022-08-23T16:34:08.786Z,35.02
2022-08-23T16:36:35.366Z,35.02
2022-08-23T16:39:01.822Z,34.60
2022-08-23T16:41:28.259Z,34.14
2022-08-23T16:43:54.955Z,34.77
2022-08-23T16:46:23.271Z,34.25
2022-08-23T16:48:49.880Z,34.89
2022-08-23T16:51:17.804Z,35.54
2022-08-23T16:53:44.858Z,35.33
2022-08-23T16:56:29.449Z,36.63
2022-08-23T16:58:56.791Z,36.22
2022-08-23T17:01:23.369Z,35.65
2022-08-23T17:03:50.971Z,35.61
2022-08-23T17:06:18.121Z,36.50
2022-08-23T17:08:45.065Z,36.82
2022-08-23T17:11:17.086Z,36.74
2022-08-23T17:13:44.250Z,36.61
2022-08-23T17:16:11.127Z,37.19
2022-08-23T17:18:38.731Z,37.14
2022-08-23T17:21:06.643Z,38.07
2022-08-23T17:23:34.095Z,37.95
2022-08-23T17:26:06.860Z,39.39
2022-08-23T17:28:33.466Z,38.70
2022-08-23T17:31:00.036Z,38.91
2022-08-23T17:33:26.451Z,38.95
2022-08-23T17:35:53.029Z,39.28
2022-08-23T17:38:20.801Z,39.07
2022-08-23T17:40:47.513Z,38.97
2022-08-23T17:43:14.068Z,39.44
2022-08-23T17:45:44.059Z,39.85
2022-08-23T17:48:11.344Z,40.10
2022-08-23T17:50:38.544Z,40.15
2022-08-23T17:53:06.094Z,40.99
2022-08-23T17:57:36.491Z,40.86
2022-08-23T18:00:06.236Z,41.25
2022-08-23T18:02:32.978Z,41.42
2022-08-23T18:04:59.679Z,41.37
2022-08-23T18:07:26.177Z,41.67
2022-08-23T18:09:52.767Z,41.84
2022-08-23T18:12:19.422Z,42.05
2022-08-23T18:14:46.003Z,42.30
2022-08-23T18:17:12.406Z,42.26
2022-08-23T18:19:38.866Z,42.39
2022-08-23T18:22:05.323Z,42.67
2022-08-23T18:24:31.940Z,42.82
2022-08-23T18:27:21.313Z,43.30
2022-08-23T18:29:51.756Z,43.78
2022-08-23T18:32:18.692Z,44.06
2022-08-23T18:34:45.147Z,44.02
2022-08-23T18:37:11.835Z,44.93
2022-08-23T18:39:38.295Z,45.44
2022-08-23T18:42:06.311Z,46.22
2022-08-23T18:44:33.261Z,46.75
2022-08-23T18:47:01.762Z,46.89
2022-08-23T18:49:28.504Z,47.02
2022-08-23T18:51:56.555Z,47.11
2022-08-23T18:54:23.094Z,47.25
2022-08-23T18:56:49.846Z,47.48
2022-08-23T18:59:19.045Z,47.56
2022-08-23T19:01:46.271Z,47.82
2022-08-23T19:04:13.618Z,48.17
2022-08-23T19:06:41.218Z,48.69
2022-08-23T19:09:08.947Z,49.17
2022-08-23T19:11:40.594Z,49.30
2022-08-23T19:14:09.718Z,49.49
2022-08-23T19:16:37.022Z,49.32
2022-08-23T19:19:04.831Z,49.77
2022-08-23T19:21:31.704Z,50.21
2022-08-23T19:23:58.242Z,50.39
2022-08-23T19:26:31.830Z,50.51
2022-08-23T19:29:00.107Z,50.32
2022-08-23T19:31:33.516Z,50.54
2022-08-23T19:34:01.079Z,50.70
2022-08-23T19:36:45.174Z,51.06
2022-08-23T19:39:14.371Z,51.47
2022-08-23T19:41:41.905Z,51.95
2022-08-23T19:44:08.609Z,52.24
2022-08-23T19:46:36.576Z,52.51
2022-08-23T19:49:03.485Z,52.79
2022-08-23T19:51:33.936Z,53.11
2022-08-23T19:54:11.018Z,53.18
2022-08-23T19:56:44.893Z,53.05
2022-08-23T19:59:20.218Z,53.39
2022-08-23T20:01:49.210Z,53.77
2022-08-23T20:04:16.920Z,53.64
2022-08-23T20:06:43.558Z,54.03
2022-08-23T20:09:10.406Z,54.33
2022-08-23T20:11:37.715Z,54.12
2022-08-23T20:14:05.899Z,53.83
2022-08-23T20:16:33.023Z,54.11
2022-08-23T20:18:59.762Z,54.75
2022-08-23T20:21:26.969Z,54.89
2022-08-23T20:24:04.255Z,54.99
2022-08-23T20:26:42.099Z,54.92
2022-08-23T20:29:20.175Z,54.70
2022-08-23T20:31:59.588Z,54.96
2022-08-23T20:34:28.382Z,55.10
2022-08-23T20:36:56.271Z,55.28
2022-08-23T20:39:24.447Z,55.37
2022-08-23T20:41:52.155Z,56.14
2022-08-23T20:44:19.590Z,56.05
2022-08-23T20:46:47.925Z,56.15
2022-08-23T20:49:16.204Z,56.35
2022-08-23T20:51:42.770Z,57.06
2022-08-23T20:54:10.682Z,57.07
2022-08-23T20:56:38.371Z,57.26
2022-08-23T20:59:07.388Z,57.36
2022-08-23T21:01:35.224Z,57.81
2022-08-23T21:04:02.335Z,57.85
2022-08-23T21:06:36.346Z,57.93
2022-08-23T21:09:03.973Z,58.17
2022-08-23T21:11:30.512Z,57.97
2022-08-23T21:13:58.409Z,58.02
2022-08-23T21:16:25.565Z,58.12
2022-08-23T21:18:55.446Z,58.27
2022-08-23T21:21:22.843Z,58.74
2022-08-23T21:23:49.664Z,59.04
2022-08-23T21:26:16.495Z,59.44
2022-08-23T21:28:43.101Z,59.64
2022-08-23T21:31:17.047Z,58.94
2022-08-23T21:33:44.640Z,59.36
2022-08-23T21:36:17.198Z,59.48
2022-08-23T21:38:45.373Z,59.64
2022-08-23T21:41:32.105Z,60.18
2022-08-23T21:43:59.254Z,60.55
2022-08-23T21:46:26.230Z,60.65
2022-08-23T21:48:52.939Z,60.47
2022-08-23T21:51:19.983Z,60.38
2022-08-23T21:53:47.466Z,61.10
2022-08-23T21:56:14.455Z,61.00
2022-08-23T21:58:41.107Z,61.14
2022-08-23T22:01:08.866Z,61.50
2022-08-23T22:03:35.944Z,61.73
2022-08-23T22:06:03.847Z,61.89
2022-08-23T22:08:30.579Z,62.15
2022-08-23T22:10:58.313Z,62.09
2022-08-23T22:13:28.550Z,62.41
2022-08-23T22:15:55.118Z,62.24
2022-08-23T22:18:21.654Z,61.96
2022-08-23T22:20:48.241Z,62.40
2022-08-23T22:23:14.907Z,62.50
2022-08-23T22:25:41.426Z,62.08
2022-08-23T22:28:08.164Z,62.59
2022-08-23T22:30:34.723Z,62.84
2022-08-23T22:33:01.255Z,63.35
2022-08-23T22:35:27.736Z,63.37
2022-08-23T22:38:12.878Z,64.09
2022-08-23T22:40:46.964Z,64.25
2022-08-23T22:43:13.450Z,64.18
2022-08-23T22:45:55.756Z,64.02
2022-08-23T22:48:23.112Z,64.41
2022-08-23T22:50:49.874Z,64.46
2022-08-23T22:53:18.027Z,64.75
2022-08-23T22:55:50.653Z,64.57
2022-08-23T22:58:17.647Z,64.76
2022-08-23T23:00:44.632Z,65.02
2022-08-23T23:03:11.190Z,65.16
2022-08-23T23:05:37.935Z,65.17
2022-08-23T23:08:23.579Z,65.56
2022-08-23T23:10:50.168Z,65.50
2022-08-23T23:13:16.832Z,65.57
2022-08-23T23:15:43.394Z,66.05
2022-08-23T23:18:09.909Z,66.36
2022-08-23T23:20:40.076Z,66.18
2022-08-23T23:23:19.985Z,66.47
2022-08-23T23:25:47.756Z,66.18
2022-08-23T23:28:15.375Z,66.23
2022-08-23T23:30:44.686Z,66.20
2022-08-23T23:33:12.695Z,66.88
2022-08-23T23:35:39.732Z,67.34
2022-08-23T23:38:07.306Z,67.89
2022-08-23T23:40:34.603Z,68.09
2022-08-23T23:43:01.595Z,68.47
2022-08-23T23:45:28.484Z,68.56
2022-08-23T23:47:55.391Z,68.58
2022-08-23T23:50:23.410Z,68.54
2022-08-23T23:52:50.050Z,68.11
2022-08-23T23:55:19.446Z,68.30
